sensor_id;sensor_type;location;lat;lon;timestamp;pressure;altitude;pressure_sealevel;temperature;humidity
24031;BME280;12240;51.142;22.486;2023-08-06T00:01:23;62174.59;;;-142.46;100.00
24031;BME280;12240;51.142;22.486;2023-08-06T00:03:52;62174.59;;;-142.46;100.00
24031;BME280;12240;51.142;22.486;2023-08-06T00:06:20;62174.59;;;-142.46;100.00
24031;BME280;12240;51.142;22.486;2023-08-06T00:08:48;62174.59;;;-142.46;100.00
24031;BME280;12240;51.142;22.486;2023-08-06T00:11:16;62174.59;;;-142.46;100.00
24031;BME280;12240;51.142;22.486;2023-08-06T00:13:44;62174.59;;;-142.46;100.00
24031;BME280;12240;51.142;22.486;2023-08-06T00:16:13;62174.59;;;-142.46;100.00
24031;BME280;12240;51.142;22.486;2023-08-06T00:18:42;62174.59;;;-142.46;100.00
24031;BME280;12240;51.142;22.486;2023-08-06T00:21:10;62174.59;;;-142.46;100.00
24031;BME280;12240;51.142;22.486;2023-08-06T00:23:41;62174.59;;;-142.46;100.00
24031;BME280;12240;51.142;22.486;2023-08-06T00:26:10;62174.59;;;-142.46;100.00
24031;BME280;12240;51.142;22.486;2023-08-06T00:28:38;62174.59;;;-142.46;100.00
24031;BME280;12240;51.142;22.486;2023-08-06T00:31:06;62174.59;;;-142.46;100.00
24031;BME280;12240;51.142;22.486;2023-08-06T00:33:35;62174.59;;;-142.46;100.00
24031;BME280;12240;51.142;22.486;2023-08-06T00:36:03;62174.59;;;-142.46;100.00
24031;BME280;12240;51.142;22.486;2023-08-06T00:38:31;62174.59;;;-142.46;100.00
24031;BME280;12240;51.142;22.486;2023-08-06T00:40:59;62174.59;;;-142.46;100.00
24031;BME280;12240;51.142;22.486;2023-08-06T00:43:27;62174.59;;;-142.46;100.00
24031;BME280;12240;51.142;22.486;2023-08-06T00:45:56;62174.59;;;-142.46;100.00
24031;BME280;12240;51.142;22.486;2023-08-06T00:48:24;62174.59;;;-142.46;100.00
24031;BME280;12240;51.142;22.486;2023-08-06T00:50:52;62174.59;;;-142.46;100.00
24031;BME280;12240;51.142;22.486;2023-08-06T00:53:21;62174.59;;;-142.46;100.00
24031;BME280;12240;51.142;22.486;2023-08-06T00:55:50;62174.59;;;-142.46;100.00
24031;BME280;12240;51.142;22.486;2023-08-06T00:58:19;62174.59;;;-142.46;100.00
24031;BME280;12240;51.142;22.486;2023-08-06T01:00:47;62174.59;;;-142.46;100.00
24031;BME280;12240;51.142;22.486;2023-08-06T01:03:15;62174.59;;;-142.46;100.00
24031;BME280;12240;51.142;22.486;2023-08-06T01:05:44;62174.59;;;-142.46;100.00
24031;BME280;12240;51.142;22.486;2023-08-06T01:08:48;62174.59;;;-142.46;100.00
24031;BME280;12240;51.142;22.486;2023-08-06T01:12:01;62174.59;;;-142.46;100.00
24031;BME280;12240;51.142;22.486;2023-08-06T01:15:00;62174.59;;;-142.46;100.00
24031;BME280;12240;51.142;22.486;2023-08-06T01:17:34;62174.59;;;-142.46;100.00
24031;BME280;12240;51.142;22.486;2023-08-06T01:20:04;62174.59;;;-142.46;100.00
24031;BME280;12240;51.142;22.486;2023-08-06T01:22:32;62174.59;;;-142.46;100.00
24031;BME280;12240;51.142;22.486;2023-08-06T01:25:00;62174.59;;;-142.46;100.00
24031;BME280;12240;51.142;22.486;2023-08-06T01:27:58;62174.59;;;-142.46;100.00
24031;BME280;12240;51.142;22.486;2023-08-06T01:30:30;62174.59;;;-142.46;100.00
24031;BME280;12240;51.142;22.486;2023-08-06T01:33:06;62174.59;;;-142.46;100.00
24031;BME280;12240;51.142;22.486;2023-08-06T01:35:38;62174.59;;;-142.46;100.00
24031;BME280;12240;51.142;22.486;2023-08-06T01:38:07;62174.59;;;-142.46;100.00
24031;BME280;12240;51.142;22.486;2023-08-06T01:40:35;62174.59;;;-142.46;100.00
24031;BME280;12240;51.142;22.486;2023-08-06T01:43:03;62174.59;;;-142.46;100.00
24031;BME280;12240;51.142;22.486;2023-08-06T01:45:31;62174.59;;;-142.46;100.00
24031;BME280;12240;51.142;22.486;2023-08-06T01:48:00;62174.59;;;-142.46;100.00
24031;BME280;12240;51.142;22.486;2023-08-06T01:50:28;62174.59;;;-142.46;100.00
24031;BME280;12240;51.142;22.486;2023-08-06T01:52:56;62174.59;;;-142.46;100.00
24031;BME280;12240;51.142;22.486;2023-08-06T01:55:24;62174.59;;;-142.46;100.00
24031;BME280;12240;51.142;22.486;2023-08-06T01:57:52;62174.59;;;-142.46;100.00
24031;BME280;12240;51.142;22.486;2023-08-06T02:00:21;62174.59;;;-142.46;100.00
24031;BME280;12240;51.142;22.486;2023-08-06T02:02:49;62174.59;;;-142.46;100.00
24031;BME280;12240;51.142;22.486;2023-08-06T02:05:17;62174.59;;;-142.46;100.00
24031;BME280;12240;51.142;22.486;2023-08-06T02:07:45;62174.59;;;-142.46;100.00
24031;BME280;12240;51.142;22.486;2023-08-06T02:10:13;62174.59;;;-142.46;100.00
24031;BME280;12240;51.142;22.486;2023-08-06T02:12:41;62174.59;;;-142.46;100.00
24031;BME280;12240;51.142;22.486;2023-08-06T02:15:09;62174.59;;;-142.46;100.00
24031;BME280;12240;51.142;22.486;2023-08-06T02:17:38;62174.59;;;-142.46;100.00
24031;BME280;12240;51.142;22.486;2023-08-06T02:20:07;62174.59;;;-142.46;100.00
24031;BME280;12240;51.142;22.486;2023-08-06T02:22:36;62174.59;;;-142.46;100.00
24031;BME280;12240;51.142;22.486;2023-08-06T02:25:04;62174.59;;;-142.46;100.00
24031;BME280;12240;51.142;22.486;2023-08-06T02:27:32;62174.59;;;-142.46;100.00
24031;BME280;12240;51.142;22.486;2023-08-06T02:30:00;62174.59;;;-142.46;100.00
24031;BME280;12240;51.142;22.486;2023-08-06T02:32:30;62174.59;;;-142.46;100.00
24031;BME280;12240;51.142;22.486;2023-08-06T02:35:00;62174.59;;;-142.46;100.00
24031;BME280;12240;51.142;22.486;2023-08-06T02:37:28;62174.59;;;-142.46;100.00
24031;BME280;12240;51.142;22.486;2023-08-06T02:39:57;62174.59;;;-142.46;100.00
24031;BME280;12240;51.142;22.486;2023-08-06T02:42:26;62174.59;;;-142.46;100.00
24031;BME280;12240;51.142;22.486;2023-08-06T02:44:54;62174.59;;;-142.46;100.00
24031;BME280;12240;51.142;22.486;2023-08-06T02:47:23;62174.59;;;-142.46;100.00
24031;BME280;12240;51.142;22.486;2023-08-06T02:49:51;62174.59;;;-142.46;100.00
24031;BME280;12240;51.142;22.486;2023-08-06T02:52:20;62174.59;;;-142.46;100.00
24031;BME280;12240;51.142;22.486;2023-08-06T02:54:49;62174.59;;;-142.46;100.00
24031;BME280;12240;51.142;22.486;2023-08-06T02:57:17;62174.59;;;-142.46;100.00
24031;BME280;12240;51.142;22.486;2023-08-06T02:59:47;62174.59;;;-142.46;100.00
24031;BME280;12240;51.142;22.486;2023-08-06T03:02:19;62174.59;;;-142.46;100.00
24031;BME280;12240;51.142;22.486;2023-08-06T03:05:14;62174.59;;;-142.46;100.00
24031;BME280;12240;51.142;22.486;2023-08-06T03:07:46;62174.59;;;-142.46;100.00
24031;BME280;12240;51.142;22.486;2023-08-06T03:10:22;62174.59;;;-142.46;100.00
24031;BME280;12240;51.142;22.486;2023-08-06T03:12:53;62174.59;;;-142.46;100.00
24031;BME280;12240;51.142;22.486;2023-08-06T03:15:22;62174.59;;;-142.46;100.00
24031;BME280;12240;51.142;22.486;2023-08-06T03:17:52;62174.59;;;-142.46;100.00
24031;BME280;12240;51.142;22.486;2023-08-06T03:20:23;62174.59;;;-142.46;100.00
24031;BME280;12240;51.142;22.486;2023-08-06T03:22:53;62174.59;;;-142.46;100.00
24031;BME280;12240;51.142;22.486;2023-08-06T03:25:21;62174.59;;;-142.46;100.00
24031;BME280;12240;51.142;22.486;2023-08-06T03:27:50;62174.59;;;-142.46;100.00
24031;BME280;12240;51.142;22.486;2023-08-06T03:30:20;62174.59;;;-142.46;100.00
24031;BME280;12240;51.142;22.486;2023-08-06T03:32:50;62174.59;;;-142.46;100.00
24031;BME280;12240;51.142;22.486;2023-08-06T03:35:21;62174.59;;;-142.46;100.00
24031;BME280;12240;51.142;22.486;2023-08-06T03:37:49;62174.59;;;-142.46;100.00
24031;BME280;12240;51.142;22.486;2023-08-06T03:40:18;62174.59;;;-142.46;100.00
24031;BME280;12240;51.142;22.486;2023-08-06T03:42:47;62174.59;;;-142.46;100.00
24031;BME280;12240;51.142;22.486;2023-08-06T03:45:15;62174.59;;;-142.46;100.00
24031;BME280;12240;51.142;22.486;2023-08-06T03:47:43;62174.59;;;-142.46;100.00
24031;BME280;12240;51.142;22.486;2023-08-06T03:50:12;62174.59;;;-142.46;100.00
24031;BME280;12240;51.142;22.486;2023-08-06T03:52:41;62174.59;;;-142.46;100.00
24031;BME280;12240;51.142;22.486;2023-08-06T03:55:09;62174.59;;;-142.46;100.00
24031;BME280;12240;51.142;22.486;2023-08-06T03:57:37;62174.59;;;-142.46;100.00
24031;BME280;12240;51.142;22.486;2023-08-06T04:00:06;62174.59;;;-142.46;100.00
24031;BME280;12240;51.142;22.486;2023-08-06T04:02:41;62174.59;;;-142.46;100.00
24031;BME280;12240;51.142;22.486;2023-08-06T04:05:13;62174.59;;;-142.46;100.00
24031;BME280;12240;51.142;22.486;2023-08-06T04:07:41;62174.59;;;-142.46;100.00
24031;BME280;12240;51.142;22.486;2023-08-06T04:10:09;62174.59;;;-142.46;100.00
24031;BME280;12240;51.142;22.486;2023-08-06T04:12:37;62174.59;;;-142.46;100.00
24031;BME280;12240;51.142;22.486;2023-08-06T04:15:07;62174.59;;;-142.46;100.00
24031;BME280;12240;51.142;22.486;2023-08-06T04:17:35;62174.59;;;-142.46;100.00
24031;BME280;12240;51.142;22.486;2023-08-06T04:20:05;62174.59;;;-142.46;100.00
24031;BME280;12240;51.142;22.486;2023-08-06T04:22:33;62174.59;;;-142.46;100.00
24031;BME280;12240;51.142;22.486;2023-08-06T04:25:01;62174.59;;;-142.46;100.00
24031;BME280;12240;51.142;22.486;2023-08-06T04:27:30;62174.59;;;-142.46;100.00
24031;BME280;12240;51.142;22.486;2023-08-06T04:29:58;62174.59;;;-142.46;100.00
24031;BME280;12240;51.142;22.486;2023-08-06T04:32:27;62174.59;;;-142.46;100.00
24031;BME280;12240;51.142;22.486;2023-08-06T04:34:56;62174.59;;;-142.46;100.00
24031;BME280;12240;51.142;22.486;2023-08-06T04:37:25;62174.59;;;-142.46;100.00
24031;BME280;12240;51.142;22.486;2023-08-06T04:39:53;62174.59;;;-142.46;100.00
24031;BME280;12240;51.142;22.486;2023-08-06T04:42:21;62174.59;;;-142.46;100.00
24031;BME280;12240;51.142;22.486;2023-08-06T04:44:50;62174.59;;;-142.46;100.00
24031;BME280;12240;51.142;22.486;2023-08-06T04:47:18;62174.59;;;-142.46;100.00
24031;BME280;12240;51.142;22.486;2023-08-06T04:49:47;62174.59;;;-142.46;100.00
24031;BME280;12240;51.142;22.486;2023-08-06T04:52:15;62174.59;;;-142.46;100.00
24031;BME280;12240;51.142;22.486;2023-08-06T04:54:44;62174.59;;;-142.46;100.00
24031;BME280;12240;51.142;22.486;2023-08-06T04:57:12;62174.59;;;-142.46;100.00
24031;BME280;12240;51.142;22.486;2023-08-06T04:59:40;62174.59;;;-142.46;100.00
24031;BME280;12240;51.142;22.486;2023-08-06T05:02:08;62174.59;;;-142.46;100.00
24031;BME280;12240;51.142;22.486;2023-08-06T05:04:36;62174.59;;;-142.46;100.00
24031;BME280;12240;51.142;22.486;2023-08-06T05:07:06;62174.59;;;-142.46;100.00
24031;BME280;12240;51.142;22.486;2023-08-06T05:09:34;62174.59;;;-142.46;100.00
24031;BME280;12240;51.142;22.486;2023-08-06T05:12:04;62174.59;;;-142.46;100.00
24031;BME280;12240;51.142;22.486;2023-08-06T05:14:32;62174.59;;;-142.46;100.00
24031;BME280;12240;51.142;22.486;2023-08-06T05:17:00;62174.59;;;-142.46;100.00
24031;BME280;12240;51.142;22.486;2023-08-06T05:19:31;62174.59;;;-142.46;100.00
24031;BME280;12240;51.142;22.486;2023-08-06T05:21:59;62174.59;;;-142.46;100.00
24031;BME280;12240;51.142;22.486;2023-08-06T05:24:27;62174.59;;;-142.46;100.00
24031;BME280;12240;51.142;22.486;2023-08-06T05:26:55;62174.59;;;-142.46;100.00
24031;BME280;12240;51.142;22.486;2023-08-06T05:29:23;62174.59;;;-142.46;100.00
24031;BME280;12240;51.142;22.486;2023-08-06T05:31:52;99177.50;;;-142.46;100.00
24031;BME280;12240;51.142;22.486;2023-08-06T05:34:20;97741.56;;;23.07;100.00
24031;BME280;12240;51.142;22.486;2023-08-06T05:36:48;97724.44;;;23.07;100.00
24031;BME280;12240;51.142;22.486;2023-08-06T05:39:17;97729.06;;;23.17;100.00
24031;BME280;12240;51.142;22.486;2023-08-06T05:41:45;97727.16;;;23.07;100.00
24031;BME280;12240;51.142;22.486;2023-08-06T05:44:13;97728.22;;;22.91;100.00
24031;BME280;12240;51.142;22.486;2023-08-06T05:46:42;97726.94;;;23.29;100.00
24031;BME280;12240;51.142;22.486;2023-08-06T05:49:10;97715.75;;;23.05;100.00
24031;BME280;12240;51.142;22.486;2023-08-06T05:51:40;97712.22;;;22.94;100.00
24031;BME280;12240;51.142;22.486;2023-08-06T05:54:08;97707.88;;;23.08;100.00
24031;BME280;12240;51.142;22.486;2023-08-06T05:56:37;97716.81;;;23.59;100.00
24031;BME280;12240;51.142;22.486;2023-08-06T05:59:05;97709.19;;;23.66;100.00
24031;BME280;12240;51.142;22.486;2023-08-06T06:01:33;97703.72;;;23.81;100.00
24031;BME280;12240;51.142;22.486;2023-08-06T06:04:01;97697.16;;;23.87;100.00
24031;BME280;12240;51.142;22.486;2023-08-06T06:06:29;97696.59;;;24.00;100.00
24031;BME280;12240;51.142;22.486;2023-08-06T06:08:58;97686.25;;;24.07;100.00
24031;BME280;12240;51.142;22.486;2023-08-06T06:11:26;97696.56;;;24.05;100.00
24031;BME280;12240;51.142;22.486;2023-08-06T06:13:54;97698.38;;;24.30;100.00
24031;BME280;12240;51.142;22.486;2023-08-06T06:16:22;97697.88;;;24.18;100.00
24031;BME280;12240;51.142;22.486;2023-08-06T06:18:50;97697.44;;;24.45;100.00
24031;BME280;12240;51.142;22.486;2023-08-06T06:21:18;97689.78;;;24.52;100.00
24031;BME280;12240;51.142;22.486;2023-08-06T06:23:47;97699.84;;;24.51;100.00
24031;BME280;12240;51.142;22.486;2023-08-06T06:26:15;97700.03;;;24.65;100.00
24031;BME280;12240;51.142;22.486;2023-08-06T06:28:43;97704.13;;;24.67;100.00
24031;BME280;12240;51.142;22.486;2023-08-06T06:31:11;97705.59;;;24.50;100.00
24031;BME280;12240;51.142;22.486;2023-08-06T06:33:39;97706.28;;;24.70;100.00
24031;BME280;12240;51.142;22.486;2023-08-06T06:36:07;97706.38;;;24.94;100.00
24031;BME280;12240;51.142;22.486;2023-08-06T06:38:36;97698.19;;;24.99;100.00
24031;BME280;12240;51.142;22.486;2023-08-06T06:41:06;97700.00;;;25.08;100.00
24031;BME280;12240;51.142;22.486;2023-08-06T06:43:34;97699.78;;;25.33;100.00
24031;BME280;12240;51.142;22.486;2023-08-06T06:46:02;97707.50;;;25.55;100.00
24031;BME280;12240;51.142;22.486;2023-08-06T06:48:32;97698.22;;;25.56;100.00
24031;BME280;12240;51.142;22.486;2023-08-06T06:51:01;97705.88;;;25.54;100.00
24031;BME280;12240;51.142;22.486;2023-08-06T06:53:29;97705.59;;;25.56;100.00
24031;BME280;12240;51.142;22.486;2023-08-06T06:56:03;97709.47;;;25.73;100.00
24031;BME280;12240;51.142;22.486;2023-08-06T06:58:33;97709.47;;;25.73;100.00
24031;BME280;12240;51.142;22.486;2023-08-06T07:01:01;97709.47;;;25.73;100.00
24031;BME280;12240;51.142;22.486;2023-08-06T07:03:29;97707.78;;;26.01;100.00
24031;BME280;12240;51.142;22.486;2023-08-06T07:05:58;97704.75;;;26.07;100.00
24031;BME280;12240;51.142;22.486;2023-08-06T07:08:27;97705.78;;;26.11;100.00
24031;BME280;12240;51.142;22.486;2023-08-06T07:11:03;97705.59;;;26.26;100.00
24031;BME280;12240;51.142;22.486;2023-08-06T07:13:34;97700.97;;;26.45;100.00
24031;BME280;12240;51.142;22.486;2023-08-06T07:16:03;62174.59;;;-142.46;100.00
24031;BME280;12240;51.142;22.486;2023-08-06T07:18:31;62174.59;;;-142.46;100.00
24031;BME280;12240;51.142;22.486;2023-08-06T07:20:59;62174.59;;;-142.46;100.00
24031;BME280;12240;51.142;22.486;2023-08-06T07:23:27;62174.59;;;-142.46;100.00
24031;BME280;12240;51.142;22.486;2023-08-06T07:25:56;62174.59;;;-142.46;100.00
24031;BME280;12240;51.142;22.486;2023-08-06T07:28:24;97691.50;;;27.44;100.00
24031;BME280;12240;51.142;22.486;2023-08-06T07:30:53;97697.00;;;27.58;100.00
24031;BME280;12240;51.142;22.486;2023-08-06T07:33:21;97705.00;;;27.82;100.00
24031;BME280;12240;51.142;22.486;2023-08-06T07:35:49;97692.13;;;27.55;100.00
24031;BME280;12240;51.142;22.486;2023-08-06T07:38:17;97704.06;;;27.59;100.00
24031;BME280;12240;51.142;22.486;2023-08-06T07:40:45;97697.91;;;27.53;100.00
24031;BME280;12240;51.142;22.486;2023-08-06T07:43:13;97687.88;;;27.49;100.00
24031;BME280;12240;51.142;22.486;2023-08-06T07:45:42;97715.78;;;27.92;100.00
24031;BME280;12240;51.142;22.486;2023-08-06T07:48:10;97707.28;;;28.20;100.00
24031;BME280;12240;51.142;22.486;2023-08-06T07:50:39;97667.25;;;27.97;100.00
24031;BME280;12240;51.142;22.486;2023-08-06T07:53:07;97686.28;;;27.89;100.00
24031;BME280;12240;51.142;22.486;2023-08-06T07:55:36;97686.69;;;28.23;100.00
24031;BME280;12240;51.142;22.486;2023-08-06T07:58:05;97690.91;;;28.42;100.00
24031;BME280;12240;51.142;22.486;2023-08-06T08:00:34;97683.28;;;28.67;100.00
24031;BME280;12240;51.142;22.486;2023-08-06T08:03:02;97676.94;;;28.80;100.00
24031;BME280;12240;51.142;22.486;2023-08-06T08:05:30;97675.06;;;28.67;100.00
24031;BME280;12240;51.142;22.486;2023-08-06T08:07:59;97672.81;;;28.69;100.00
24031;BME280;12240;51.142;22.486;2023-08-06T08:10:27;97684.00;;;28.58;100.00
24031;BME280;12240;51.142;22.486;2023-08-06T08:12:55;97679.34;;;28.59;100.00
24031;BME280;12240;51.142;22.486;2023-08-06T08:15:29;97689.09;;;28.51;100.00
24031;BME280;12240;51.142;22.486;2023-08-06T08:17:58;97675.91;;;28.53;100.00
24031;BME280;12240;51.142;22.486;2023-08-06T08:20:27;97690.47;;;28.62;100.00
24031;BME280;12240;51.142;22.486;2023-08-06T08:23:03;97684.84;;;29.03;100.00
24031;BME280;12240;51.142;22.486;2023-08-06T08:25:31;97690.50;;;29.20;100.00
24031;BME280;12240;51.142;22.486;2023-08-06T08:28:00;97686.41;;;28.74;100.00
24031;BME280;12240;51.142;22.486;2023-08-06T08:30:29;97685.28;;;28.97;100.00
24031;BME280;12240;51.142;22.486;2023-08-06T08:32:57;97676.22;;;29.10;100.00
24031;BME280;12240;51.142;22.486;2023-08-06T08:35:26;97665.84;;;28.85;100.00
24031;BME280;12240;51.142;22.486;2023-08-06T08:37:55;97678.03;;;29.14;100.00
24031;BME280;12240;51.142;22.486;2023-08-06T08:40:32;97663.84;;;28.99;100.00
24031;BME280;12240;51.142;22.486;2023-08-06T08:43:01;97671.41;;;29.37;100.00
24031;BME280;12240;51.142;22.486;2023-08-06T08:45:30;97645.25;;;28.87;100.00
24031;BME280;12240;51.142;22.486;2023-08-06T08:48:02;97654.09;;;28.84;100.00
24031;BME280;12240;51.142;22.486;2023-08-06T08:50:30;97654.34;;;29.18;100.00
24031;BME280;12240;51.142;22.486;2023-08-06T08:52:59;97651.47;;;29.54;100.00
24031;BME280;12240;51.142;22.486;2023-08-06T08:55:27;97646.13;;;29.18;100.00
24031;BME280;12240;51.142;22.486;2023-08-06T08:57:57;97645.66;;;29.55;100.00
24031;BME280;12240;51.142;22.486;2023-08-06T09:00:26;97646.19;;;29.66;100.00
24031;BME280;12240;51.142;22.486;2023-08-06T09:02:57;97641.66;;;29.53;100.00
24031;BME280;12240;51.142;22.486;2023-08-06T09:05:29;97633.28;;;29.58;100.00
24031;BME280;12240;51.142;22.486;2023-08-06T09:08:05;97632.97;;;30.07;100.00
24031;BME280;12240;51.142;22.486;2023-08-06T09:10:34;97628.44;;;29.63;100.00
24031;BME280;12240;51.142;22.486;2023-08-06T09:13:04;97622.88;;;29.77;100.00
24031;BME280;12240;51.142;22.486;2023-08-06T09:15:35;97605.84;;;30.23;100.00
24031;BME280;12240;51.142;22.486;2023-08-06T09:18:12;97602.09;;;29.93;100.00
24031;BME280;12240;51.142;22.486;2023-08-06T09:20:41;97594.88;;;30.14;100.00
24031;BME280;12240;51.142;22.486;2023-08-06T09:23:10;97596.47;;;30.15;100.00
24031;BME280;12240;51.142;22.486;2023-08-06T09:25:39;97588.59;;;30.31;100.00
24031;BME280;12240;51.142;22.486;2023-08-06T09:28:10;97570.63;;;29.99;98.17
24031;BME280;12240;51.142;22.486;2023-08-06T09:30:39;97576.00;;;30.47;100.00
24031;BME280;12240;51.142;22.486;2023-08-06T09:33:09;97558.72;;;30.29;98.88
24031;BME280;12240;51.142;22.486;2023-08-06T09:35:38;97554.66;;;30.10;98.61
24031;BME280;12240;51.142;22.486;2023-08-06T09:38:08;97548.72;;;30.33;97.52
24031;BME280;12240;51.142;22.486;2023-08-06T09:40:39;97542.22;;;30.12;96.89
24031;BME280;12240;51.142;22.486;2023-08-06T09:43:07;97554.03;;;30.55;98.38
24031;BME280;12240;51.142;22.486;2023-08-06T09:45:37;97552.28;;;30.42;97.10
24031;BME280;12240;51.142;22.486;2023-08-06T09:48:08;97552.13;;;30.47;98.23
24031;BME280;12240;51.142;22.486;2023-08-06T09:50:38;97560.16;;;30.87;98.35
24031;BME280;12240;51.142;22.486;2023-08-06T09:53:08;97553.72;;;30.57;98.31
24031;BME280;12240;51.142;22.486;2023-08-06T09:55:37;97539.97;;;30.48;97.10
24031;BME280;12240;51.142;22.486;2023-08-06T09:58:06;97539.97;;;30.48;98.12
24031;BME280;12240;51.142;22.486;2023-08-06T10:00:35;97560.38;;;31.19;99.36
24031;BME280;12240;51.142;22.486;2023-08-06T10:03:07;97526.88;;;30.71;96.09
24031;BME280;12240;51.142;22.486;2023-08-06T10:05:36;97522.19;;;30.71;96.01
24031;BME280;12240;51.142;22.486;2023-08-06T10:08:07;97532.03;;;30.81;96.15
24031;BME280;12240;51.142;22.486;2023-08-06T10:10:35;97541.84;;;31.08;95.61
24031;BME280;12240;51.142;22.486;2023-08-06T10:13:06;97526.78;;;31.05;93.92
24031;BME280;12240;51.142;22.486;2023-08-06T10:15:36;97516.31;;;30.99;93.39
24031;BME280;12240;51.142;22.486;2023-08-06T10:18:07;97520.06;;;30.94;94.78
24031;BME280;12240;51.142;22.486;2023-08-06T10:20:36;97541.59;;;31.30;94.74
24031;BME280;12240;51.142;22.486;2023-08-06T10:23:06;97513.50;;;31.16;92.56
24031;BME280;12240;51.142;22.486;2023-08-06T10:25:40;97511.41;;;31.50;93.25
24031;BME280;12240;51.142;22.486;2023-08-06T10:28:10;97497.00;;;31.16;90.60
24031;BME280;12240;51.142;22.486;2023-08-06T10:30:44;97496.25;;;31.65;91.14
24031;BME280;12240;51.142;22.486;2023-08-06T10:33:13;97501.31;;;31.92;90.72
24031;BME280;12240;51.142;22.486;2023-08-06T10:35:43;97494.81;;;31.67;89.33
24031;BME280;12240;51.142;22.486;2023-08-06T10:38:22;97487.75;;;31.87;89.69
24031;BME280;12240;51.142;22.486;2023-08-06T10:43:40;97479.44;;;31.96;88.02
24031;BME280;12240;51.142;22.486;2023-08-06T10:46:22;97470.72;;;32.26;86.76
24031;BME280;12240;51.142;22.486;2023-08-06T10:48:51;97461.69;;;32.58;85.19
24031;BME280;12240;51.142;22.486;2023-08-06T10:51:19;97448.88;;;31.88;84.69
24031;BME280;12240;51.142;22.486;2023-08-06T10:53:49;97465.44;;;32.42;85.73
24031;BME280;12240;51.142;22.486;2023-08-06T10:56:21;97440.41;;;31.93;83.74
24031;BME280;12240;51.142;22.486;2023-08-06T10:58:57;97448.75;;;31.27;85.63
24031;BME280;12240;51.142;22.486;2023-08-06T11:01:29;97427.38;;;30.95;85.17
24031;BME280;12240;51.142;22.486;2023-08-06T11:04:02;97435.19;;;32.01;86.82
24031;BME280;12240;51.142;22.486;2023-08-06T11:06:30;97435.81;;;31.98;87.28
24031;BME280;12240;51.142;22.486;2023-08-06T11:08:58;97428.13;;;31.91;87.67
24031;BME280;12240;51.142;22.486;2023-08-06T11:11:26;97414.72;;;31.60;87.49
24031;BME280;12240;51.142;22.486;2023-08-06T11:13:55;97397.84;;;31.91;86.35
24031;BME280;12240;51.142;22.486;2023-08-06T11:16:24;97381.31;;;32.56;85.37
24031;BME280;12240;51.142;22.486;2023-08-06T11:18:53;97401.38;;;33.01;86.03
24031;BME280;12240;51.142;22.486;2023-08-06T11:21:22;97386.16;;;32.39;82.08
24031;BME280;12240;51.142;22.486;2023-08-06T11:23:53;97388.16;;;32.06;83.96
24031;BME280;12240;51.142;22.486;2023-08-06T11:26:22;97418.94;;;31.58;85.99
24031;BME280;12240;51.142;22.486;2023-08-06T11:28:55;97409.91;;;31.28;85.19
24031;BME280;12240;51.142;22.486;2023-08-06T11:31:24;97450.41;;;31.98;87.05
24031;BME280;12240;51.142;22.486;2023-08-06T11:33:54;97447.22;;;32.08;87.58
24031;BME280;12240;51.142;22.486;2023-08-06T11:36:49;97419.78;;;32.65;84.41
24031;BME280;12240;51.142;22.486;2023-08-06T11:39:17;97432.66;;;32.28;85.45
24031;BME280;12240;51.142;22.486;2023-08-06T11:41:47;97428.63;;;31.64;85.21
24031;BME280;12240;51.142;22.486;2023-08-06T11:44:20;97436.94;;;31.55;86.58
24031;BME280;12240;51.142;22.486;2023-08-06T11:46:55;97439.16;;;31.33;86.26
24031;BME280;12240;51.142;22.486;2023-08-06T11:49:50;97446.88;;;31.10;88.39
24031;BME280;12240;51.142;22.486;2023-08-06T11:52:21;97444.25;;;30.76;88.83
24031;BME280;12240;51.142;22.486;2023-08-06T11:55:08;97447.91;;;30.51;89.29
24031;BME280;12240;51.142;22.486;2023-08-06T11:57:44;97465.84;;;30.31;91.52
24031;BME280;12240;51.142;22.486;2023-08-06T12:00:13;97468.75;;;30.09;91.80
24031;BME280;12240;51.142;22.486;2023-08-06T12:02:46;97490.06;;;29.95;93.84
24031;BME280;12240;51.142;22.486;2023-08-06T12:05:28;97478.25;;;29.69;92.13
24031;BME280;12240;51.142;22.486;2023-08-06T12:07:59;97491.28;;;29.63;93.93
24031;BME280;12240;51.142;22.486;2023-08-06T12:10:31;97499.19;;;29.48;94.62
24031;BME280;12240;51.142;22.486;2023-08-06T12:13:00;97483.66;;;29.35;95.81
24031;BME280;12240;51.142;22.486;2023-08-06T12:15:32;97491.31;;;29.16;97.21
24031;BME280;12240;51.142;22.486;2023-08-06T12:18:01;97524.44;;;28.97;98.97
24031;BME280;12240;51.142;22.486;2023-08-06T12:20:29;97546.72;;;27.53;100.00
24031;BME280;12240;51.142;22.486;2023-08-06T12:22:57;97564.69;;;26.68;100.00
24031;BME280;12240;51.142;22.486;2023-08-06T12:25:26;97566.72;;;26.25;100.00
24031;BME280;12240;51.142;22.486;2023-08-06T12:27:54;97580.13;;;25.84;100.00
24031;BME280;12240;51.142;22.486;2023-08-06T12:30:22;97572.81;;;25.80;100.00
24031;BME280;12240;51.142;22.486;2023-08-06T12:32:52;97562.41;;;25.63;100.00
24031;BME280;12240;51.142;22.486;2023-08-06T12:35:20;97564.28;;;25.44;100.00
24031;BME280;12240;51.142;22.486;2023-08-06T12:37:48;97567.66;;;25.36;100.00
24031;BME280;12240;51.142;22.486;2023-08-06T12:40:16;97569.56;;;25.07;100.00
24031;BME280;12240;51.142;22.486;2023-08-06T12:43:03;97570.91;;;25.09;100.00
24031;BME280;12240;51.142;22.486;2023-08-06T12:45:31;97556.31;;;25.24;100.00
24031;BME280;12240;51.142;22.486;2023-08-06T12:48:00;97570.31;;;25.41;100.00
24031;BME280;12240;51.142;22.486;2023-08-06T12:50:30;97582.28;;;25.64;100.00